createdAt,value
2023-05-07T00:00:26.985Z,14.83
2023-05-07T00:02:57.174Z,15.40
2023-05-07T00:05:27.353Z,14.23
2023-05-07T00:07:55.776Z,14.30
2023-05-07T00:10:23.688Z,13.43
2023-05-07T00:12:51.200Z,14.63
2023-05-07T00:15:20.550Z,14.07
2023-05-07T00:17:50.795Z,14.20
2023-05-07T00:20:20.870Z,14.40
2023-05-07T00:22:48.141Z,15.20
2023-05-07T00:25:15.251Z,12.90
2023-05-07T00:27:49.766Z,14.00
2023-05-07T00:30:19.888Z,14.33
2023-05-07T00:32:47.295Z,14.67
2023-05-07T00:35:14.334Z,14.90
2023-05-07T00:37:41.605Z,14.23
2023-05-07T00:40:09.823Z,12.97
2023-05-07T00:42:39.122Z,14.33
2023-05-07T00:45:06.630Z,14.13
2023-05-07T00:47:35.636Z,14.57
2023-05-07T00:50:02.890Z,13.47
2023-05-07T00:52:31.254Z,14.40
2023-05-07T00:54:58.512Z,15.37
2023-05-07T00:57:26.858Z,14.73
2023-05-07T00:59:56.860Z,15.00
2023-05-07T01:02:24.164Z,15.33
2023-05-07T01:04:52.178Z,14.63
2023-05-07T01:07:21.716Z,15.47
2023-05-07T01:09:48.880Z,14.33
2023-05-07T01:12:16.652Z,16.07
2023-05-07T01:14:45.694Z,14.47
2023-05-07T01:17:12.795Z,14.50
2023-05-07T01:19:42.914Z,13.53
2023-05-07T01:22:16.100Z,15.63
2023-05-07T01:24:43.738Z,14.77
2023-05-07T01:27:11.078Z,15.20
2023-05-07T01:29:39.107Z,15.10
2023-05-07T01:32:06.927Z,16.30
2023-05-07T01:34:38.361Z,14.90
2023-05-07T01:37:11.758Z,14.67
2023-05-07T01:39:42.203Z,15.50
2023-05-07T01:42:11.237Z,14.87
2023-05-07T01:44:41.347Z,16.17
2023-05-07T01:47:11.609Z,16.20
2023-05-07T01:49:39.733Z,14.67
2023-05-07T01:52:11.781Z,13.33
2023-05-07T01:54:42.099Z,15.30
2023-05-07T01:57:12.087Z,14.47
2023-05-07T01:59:42.144Z,15.80
2023-05-07T02:02:11.409Z,14.90
2023-05-07T02:04:38.500Z,14.60
2023-05-07T02:07:05.466Z,15.50
2023-05-07T02:09:33.443Z,15.90
2023-05-07T02:12:03.605Z,16.37
2023-05-07T02:14:33.702Z,14.77
2023-05-07T02:17:01.766Z,14.33
2023-05-07T02:19:28.771Z,15.07
2023-05-07T02:21:58.983Z,16.40
2023-05-07T02:24:31.960Z,15.13
2023-05-07T02:27:02.312Z,17.47
2023-05-07T02:29:29.303Z,15.67
2023-05-07T02:31:59.402Z,15.57
2023-05-07T02:34:29.480Z,15.93
2023-05-07T02:36:57.856Z,14.67
2023-05-07T02:39:26.850Z,15.83
2023-05-07T02:41:55.945Z,14.63
2023-05-07T02:44:24.968Z,15.37
2023-05-07T02:46:57.900Z,15.13
2023-05-07T02:49:25.958Z,15.33
2023-05-07T02:51:53.947Z,15.60
2023-05-07T02:54:21.922Z,15.33
2023-05-07T02:56:48.887Z,15.77
2023-05-07T02:59:19.547Z,16.07
2023-05-07T03:01:49.798Z,16.63
2023-05-07T03:04:19.016Z,15.90
2023-05-07T03:06:46.979Z,14.43
2023-05-07T03:09:16.107Z,15.23
2023-05-07T03:11:44.115Z,16.17
2023-05-07T03:14:13.390Z,16.30
2023-05-07T03:16:41.547Z,14.50
2023-05-07T03:19:11.526Z,15.63
2023-05-07T03:21:38.529Z,16.23
2023-05-07T03:24:07.859Z,16.20
2023-05-07T03:26:37.291Z,16.53
2023-05-07T03:29:07.292Z,17.07
2023-05-07T03:31:37.422Z,17.00
2023-05-07T03:34:05.723Z,16.10
2023-05-07T03:36:34.707Z,17.13
2023-05-07T03:39:03.768Z,17.57
2023-05-07T03:41:31.849Z,16.13
2023-05-07T03:44:00.978Z,16.40
2023-05-07T03:46:29.305Z,16.47
2023-05-07T03:48:56.433Z,17.67
2023-05-07T03:51:26.780Z,16.43
2023-05-07T03:53:58.294Z,17.30
2023-05-07T03:56:27.958Z,15.67
2023-05-07T03:58:55.527Z,14.87
2023-05-07T04:01:24.613Z,15.13
2023-05-07T04:03:51.704Z,14.70
2023-05-07T04:06:18.753Z,15.47
2023-05-07T04:08:45.675Z,15.83
2023-05-07T04:11:12.925Z,16.37
2023-05-07T04:13:39.825Z,16.53
2023-05-07T04:16:11.058Z,16.07
2023-05-07T04:18:41.434Z,15.00
2023-05-07T04:21:18.907Z,14.63
2023-05-07T04:23:49.343Z,16.10
2023-05-07T04:26:19.439Z,15.63
2023-05-07T04:28:46.434Z,15.73
2023-05-07T04:31:16.265Z,16.07
2023-05-07T04:33:44.293Z,15.73
2023-05-07T04:36:14.417Z,14.90
2023-05-07T04:38:42.760Z,15.07
2023-05-07T04:41:14.001Z,15.83
2023-05-07T04:43:44.092Z,14.87
2023-05-07T04:46:17.191Z,13.50
2023-05-07T04:48:44.296Z,14.53
2023-05-07T04:51:14.307Z,14.10
2023-05-07T04:53:44.353Z,14.90
2023-05-07T04:56:14.430Z,14.67
2023-05-07T04:58:41.550Z,13.87
2023-05-07T05:01:10.583Z,13.13
2023-05-07T05:03:38.890Z,12.97
2023-05-07T05:06:06.602Z,13.37
2023-05-07T05:08:34.805Z,12.70
2023-05-07T05:11:04.822Z,13.77
2023-05-07T05:13:34.248Z,13.27
2023-05-07T05:16:04.598Z,13.63
2023-05-07T05:18:34.172Z,12.30
2023-05-07T05:21:01.357Z,13.23
2023-05-07T05:23:29.409Z,11.87
2023-05-07T05:26:05.598Z,12.47
2023-05-07T05:28:35.715Z,13.03
2023-05-07T05:31:06.433Z,13.10
2023-05-07T05:33:35.709Z,13.00
2023-05-07T05:36:06.273Z,13.70
2023-05-07T05:38:35.270Z,13.53
2023-05-07T05:41:02.332Z,13.10
2023-05-07T05:43:32.549Z,13.13
2023-05-07T05:46:00.129Z,11.83
2023-05-07T05:48:28.840Z,12.40
2023-05-07T05:50:59.157Z,12.07
2023-05-07T05:53:27.154Z,12.17
2023-05-07T05:55:57.175Z,11.60
2023-05-07T05:58:24.339Z,11.40
2023-05-07T06:00:54.605Z,12.07
2023-05-07T06:03:22.729Z,11.23
2023-05-07T06:05:54.057Z,12.60
2023-05-07T06:08:22.079Z,12.80
2023-05-07T06:10:52.155Z,11.93
2023-05-07T06:13:20.605Z,12.13
2023-05-07T06:15:51.047Z,11.67
2023-05-07T06:18:21.038Z,13.17
2023-05-07T06:20:48.080Z,13.03
2023-05-07T06:23:18.077Z,14.00
2023-05-07T06:25:51.419Z,12.87
2023-05-07T06:28:21.567Z,12.43
2023-05-07T06:30:49.966Z,12.60
2023-05-07T06:33:20.924Z,11.93
2023-05-07T06:35:48.954Z,11.97
2023-05-07T06:38:18.964Z,13.63
2023-05-07T06:40:50.761Z,11.77
2023-05-07T06:43:19.778Z,11.43
2023-05-07T06:45:47.790Z,12.63
2023-05-07T06:48:14.870Z,11.73
2023-05-07T06:50:44.995Z,10.60
2023-05-07T06:53:15.146Z,11.10
2023-05-07T06:55:42.759Z,11.00
2023-05-07T06:58:09.767Z,9.93
2023-05-07T07:00:38.830Z,10.93
2023-05-07T07:03:05.916Z,11.17
2023-05-07T07:05:33.301Z,9.70
2023-05-07T07:08:00.276Z,10.03
2023-05-07T07:10:30.478Z,8.43
2023-05-07T07:13:00.784Z,9.53
2023-05-07T07:15:30.988Z,8.10
2023-05-07T07:18:00.082Z,8.10
2023-05-07T07:20:27.121Z,7.80
2023-05-07T07:22:57.098Z,8.73
2023-05-07T07:25:24.513Z,9.70
2023-05-07T07:27:52.527Z,8.70
2023-05-07T07:30:21.483Z,8.57
2023-05-07T07:32:49.592Z,8.10
2023-05-07T07:35:17.124Z,8.57
2023-05-07T07:37:44.106Z,6.90
2023-05-07T07:40:12.530Z,7.57
2023-05-07T07:42:39.774Z,7.20
2023-05-07T07:45:09.468Z,7.97
2023-05-07T07:47:40.297Z,7.83
2023-05-07T07:50:08.128Z,7.80
2023-05-07T07:52:41.956Z,7.20
2023-05-07T07:55:09.466Z,8.00
2023-05-07T07:57:36.613Z,6.73
2023-05-07T08:00:07.402Z,7.17
2023-05-07T08:02:35.638Z,7.87
2023-05-07T08:05:05.928Z,6.83
2023-05-07T08:07:32.913Z,7.20
2023-05-07T08:10:01.032Z,6.87
2023-05-07T08:12:31.084Z,6.63
2023-05-07T08:15:01.279Z,7.60
2023-05-07T08:17:30.340Z,8.30
2023-05-07T08:19:57.503Z,7.77
2023-05-07T08:22:27.606Z,7.47
2023-05-07T08:24:54.921Z,8.27
2023-05-07T08:27:22.956Z,8.30
2023-05-07T08:29:53.346Z,8.80
2023-05-07T08:32:20.385Z,9.13
2023-05-07T08:34:49.282Z,10.43
2023-05-07T08:37:18.573Z,9.30
2023-05-07T08:39:45.500Z,10.73
2023-05-07T08:42:17.597Z,9.10
2023-05-07T08:44:48.170Z,10.50
2023-05-07T08:47:15.412Z,11.77
2023-05-07T08:49:43.038Z,9.80
2023-05-07T08:52:13.750Z,10.37
2023-05-07T08:54:44.975Z,10.30
2023-05-07T08:57:14.960Z,9.93
2023-05-07T08:59:45.088Z,10.77
2023-05-07T09:02:14.413Z,10.07
2023-05-07T09:04:41.495Z,11.10
2023-05-07T09:07:08.796Z,11.20
2023-05-07T09:09:38.615Z,10.73
2023-05-07T09:12:06.055Z,10.53
2023-05-07T09:14:36.270Z,10.90
2023-05-07T09:17:04.333Z,10.43
2023-05-07T09:19:34.524Z,10.30
2023-05-07T09:22:07.998Z,8.93
2023-05-07T09:24:38.838Z,8.07
2023-05-07T09:27:14.471Z,7.80
2023-05-07T09:29:44.803Z,8.03
2023-05-07T09:32:14.538Z,9.07
2023-05-07T09:34:43.165Z,9.60
2023-05-07T09:37:10.325Z,8.50
2023-05-07T09:39:48.033Z,8.53
2023-05-07T09:42:23.788Z,8.57
2023-05-07T09:44:54.060Z,8.20
2023-05-07T09:47:24.753Z,9.30
2023-05-07T09:50:01.071Z,9.97
2023-05-07T09:52:34.513Z,10.50
2023-05-07T09:55:04.709Z,10.03
2023-05-07T09:57:35.388Z,11.50
2023-05-07T10:00:06.923Z,9.67
2023-05-07T10:02:37.297Z,10.50
2023-05-07T10:05:07.207Z,9.97
2023-05-07T10:07:34.445Z,8.80
2023-05-07T10:10:02.230Z,8.27
2023-05-07T10:12:30.126Z,9.47
2023-05-07T10:14:57.696Z,9.17
2023-05-07T10:17:27.778Z,8.67
2023-05-07T10:19:58.056Z,7.30
2023-05-07T10:22:28.383Z,7.73
2023-05-07T10:24:59.902Z,8.63
2023-05-07T10:27:27.659Z,8.17
2023-05-07T10:30:07.787Z,7.60
2023-05-07T10:32:57.901Z,8.43
2023-05-07T10:35:31.440Z,10.53
2023-05-07T10:37:59.479Z,17.63
2023-05-07T10:40:29.651Z,14.47
2023-05-07T10:43:01.799Z,12.53
2023-05-07T10:45:30.714Z,10.23
2023-05-07T10:48:28.916Z,9.47
2023-05-07T10:51:21.984Z,9.40
2023-05-07T10:54:15.776Z,9.00
2023-05-07T10:56:49.059Z,7.23
2023-05-07T10:59:41.816Z,7.20
2023-05-07T11:02:11.001Z,10.23
2023-05-07T11:04:39.840Z,11.30
2023-05-07T11:07:10.263Z,11.17
2023-05-07T11:09:52.325Z,9.47
2023-05-07T11:12:41.262Z,9.50
2023-05-07T11:15:12.285Z,8.13
2023-05-07T11:17:57.081Z,8.10
2023-05-07T11:20:55.704Z,7.00
2023-05-07T11:23:35.189Z,9.70
2023-05-07T11:26:09.579Z,9.70
2023-05-07T11:28:43.709Z,9.23
2023-05-07T11:31:13.931Z,8.83
2023-05-07T11:33:44.928Z,10.07
2023-05-07T11:36:12.480Z,8.90
2023-05-07T11:38:41.535Z,9.13
2023-05-07T11:41:09.049Z,8.87
2023-05-07T11:43:41.085Z,9.90
2023-05-07T11:46:10.901Z,9.60
2023-05-07T11:48:38.357Z,10.40
2023-05-07T11:51:09.849Z,9.77
2023-05-07T11:53:40.976Z,8.97
2023-05-07T11:56:13.481Z,11.57
2023-05-07T11:58:44.819Z,12.93
2023-05-07T12:01:13.443Z,15.13
2023-05-07T12:03:47.342Z,14.37
2023-05-07T12:06:17.760Z,14.40
2023-05-07T12:08:48.609Z,14.77
2023-05-07T12:11:25.295Z,15.23
2023-05-07T12:13:58.846Z,15.20
2023-05-07T12:16:27.557Z,15.27
2023-05-07T12:18:56.739Z,13.50
2023-05-07T12:21:27.339Z,14.60
2023-05-07T12:23:54.687Z,14.87
2023-05-07T12:26:22.485Z,14.03
2023-05-07T12:28:49.570Z,11.73
2023-05-07T12:31:22.779Z,10.23
2023-05-07T12:33:52.220Z,10.20
2023-05-07T12:36:22.232Z,10.77
2023-05-07T12:38:52.453Z,9.90
2023-05-07T12:41:26.700Z,8.70
2023-05-07T12:43:58.625Z,9.13
2023-05-07T12:46:28.826Z,8.77
2023-05-07T12:48:59.585Z,8.30
2023-05-07T12:51:26.784Z,8.70
2023-05-07T12:53:57.752Z,10.00
2023-05-07T12:56:25.903Z,10.13
2023-05-07T12:58:52.991Z,9.00
2023-05-07T13:01:22.964Z,9.17
2023-05-07T13:03:53.941Z,7.67
2023-05-07T13:06:21.096Z,7.73
2023-05-07T13:08:49.347Z,7.73
2023-05-07T13:11:17.385Z,10.00
2023-05-07T13:13:48.329Z,11.07
2023-05-07T13:16:15.429Z,11.03
2023-05-07T13:18:44.774Z,9.00
2023-05-07T13:21:14.511Z,8.53
2023-05-07T13:23:42.870Z,12.73
2023-05-07T13:26:25.769Z,13.50
2023-05-07T13:28:56.951Z,19.07
2023-05-07T13:31:27.013Z,15.47
2023-05-07T13:33:54.144Z,16.53
2023-05-07T13:36:27.840Z,13.30
2023-05-07T13:38:55.847Z,11.57
2023-05-07T13:41:22.890Z,9.83
2023-05-07T13:43:49.933Z,8.90
2023-05-07T13:46:19.642Z,9.17
2023-05-07T13:48:46.782Z,8.97
2023-05-07T13:51:13.735Z,9.67
2023-05-07T13:53:40.824Z,13.20
2023-05-07T13:56:10.915Z,13.63
2023-05-07T13:58:42.158Z,13.87
2023-05-07T14:01:15.558Z,13.03
2023-05-07T14:03:44.925Z,14.77
2023-05-07T14:06:13.040Z,13.97
2023-05-07T14:08:39.939Z,15.30
2023-05-07T14:11:09.955Z,15.27
2023-05-07T14:13:39.982Z,12.83
2023-05-07T14:16:09.993Z,12.80
2023-05-07T14:18:38.205Z,10.97
2023-05-07T14:21:07.426Z,11.87
2023-05-07T14:23:37.557Z,15.70
2023-05-07T14:26:10.637Z,11.87
2023-05-07T14:28:51.010Z,15.17
2023-05-07T14:31:21.530Z,13.80
2023-05-07T14:33:51.734Z,14.50
2023-05-07T14:36:22.343Z,13.43
2023-05-07T14:38:55.851Z,14.40
2023-05-07T14:41:25.942Z,13.50
2023-05-07T14:43:54.950Z,16.03
2023-05-07T14:46:25.844Z,14.00
2023-05-07T14:48:55.874Z,15.30
2023-05-07T14:51:27.023Z,17.17
2023-05-07T14:53:55.190Z,14.23
2023-05-07T14:56:24.247Z,15.63
2023-05-07T14:58:51.464Z,14.97
2023-05-07T15:01:21.848Z,15.20
2023-05-07T15:03:51.104Z,14.27
2023-05-07T15:06:25.679Z,16.13
2023-05-07T15:08:52.655Z,16.00
2023-05-07T15:11:19.788Z,15.60
2023-05-07T15:13:52.862Z,14.97
2023-05-07T15:16:26.167Z,15.30
2023-05-07T15:18:54.242Z,17.30
2023-05-07T15:21:22.318Z,15.70
2023-05-07T15:23:51.435Z,17.17
2023-05-07T15:26:21.658Z,16.10
2023-05-07T15:28:50.862Z,17.13
2023-05-07T15:31:19.889Z,16.50
2023-05-07T15:33:48.619Z,16.40
2023-05-07T15:36:17.615Z,14.20
2023-05-07T15:38:44.703Z,15.90
2023-05-07T15:41:13.875Z,16.00
2023-05-07T15:43:49.287Z,14.57
2023-05-07T15:46:26.438Z,13.23
2023-05-07T15:48:54.813Z,15.07
2023-05-07T15:51:22.297Z,15.53
2023-05-07T15:53:53.397Z,15.37
2023-05-07T15:56:24.219Z,15.00
2023-05-07T15:58:54.243Z,14.47
2023-05-07T16:01:26.023Z,15.67
2023-05-07T16:03:56.448Z,14.60
2023-05-07T16:06:27.987Z,15.20
2023-05-07T16:08:54.977Z,16.47
2023-05-07T16:11:22.213Z,16.87
2023-05-07T16:13:49.278Z,12.30
2023-05-07T16:16:18.431Z,13.50
2023-05-07T16:18:46.503Z,12.57
2023-05-07T16:21:16.486Z,13.07
2023-05-07T16:23:43.423Z,13.43
2023-05-07T16:26:14.616Z,12.57
2023-05-07T16:28:41.827Z,11.33
2023-05-07T16:31:09.591Z,13.63
2023-05-07T16:33:36.878Z,12.73
2023-05-07T16:36:04.162Z,11.13
2023-05-07T16:38:33.234Z,12.67
2023-05-07T16:41:00.608Z,12.60
2023-05-07T16:43:28.658Z,13.00
2023-05-07T16:45:56.811Z,13.60
2023-05-07T16:48:23.868Z,12.77
2023-05-07T16:50:50.944Z,14.03
2023-05-07T16:53:18.053Z,13.00
2023-05-07T16:55:46.093Z,12.17
2023-05-07T16:58:13.253Z,12.77
2023-05-07T17:00:50.141Z,13.30
2023-05-07T17:03:19.486Z,13.10
2023-05-07T17:05:49.795Z,13.80
2023-05-07T17:08:16.779Z,15.27
2023-05-07T17:10:46.117Z,16.67
2023-05-07T17:13:14.393Z,14.33
2023-05-07T17:15:43.648Z,13.27
2023-05-07T17:18:10.955Z,14.63
2023-05-07T17:20:41.223Z,15.30
2023-05-07T17:23:11.403Z,14.70
2023-05-07T17:25:39.082Z,13.20
2023-05-07T17:28:07.139Z,14.17
2023-05-07T17:30:34.108Z,14.07
2023-05-07T17:33:12.866Z,14.63
2023-05-07T17:35:43.179Z,14.13
2023-05-07T17:38:13.216Z,14.77
2023-05-07T17:40:41.286Z,14.67
2023-05-07T17:43:11.369Z,14.80
2023-05-07T17:45:40.895Z,15.03
2023-05-07T17:48:08.125Z,15.63
2023-05-07T17:50:36.211Z,14.63
2023-05-07T17:53:05.948Z,14.63
2023-05-07T17:55:40.411Z,14.50
2023-05-07T17:58:10.840Z,13.60
2023-05-07T18:00:39.903Z,13.67
2023-05-07T18:03:10.290Z,14.47
2023-05-07T18:05:40.668Z,14.57
2023-05-07T18:08:08.431Z,12.47
2023-05-07T18:10:35.771Z,13.87
2023-05-07T18:13:05.931Z,16.30
2023-05-07T18:15:34.048Z,14.53
2023-05-07T18:18:01.085Z,14.33
2023-05-07T18:20:28.120Z,13.10
2023-05-07T18:22:55.124Z,14.53
2023-05-07T18:25:25.154Z,16.83
2023-05-07T18:27:52.074Z,15.83
2023-05-07T18:30:22.562Z,20.20
2023-05-07T18:32:53.001Z,15.73
2023-05-07T18:35:23.047Z,15.53
2023-05-07T18:37:49.949Z,14.47
2023-05-07T18:40:19.897Z,13.60
2023-05-07T18:42:47.183Z,13.47
2023-05-07T18:45:15.701Z,14.80
2023-05-07T18:47:46.480Z,13.67
2023-05-07T18:50:14.044Z,14.40
2023-05-07T18:52:42.270Z,14.87
2023-05-07T18:55:13.460Z,14.97
2023-05-07T18:57:41.736Z,13.50
2023-05-07T19:00:09.456Z,13.40
2023-05-07T19:02:40.172Z,13.43
2023-05-07T19:05:08.027Z,13.37
2023-05-07T19:07:35.129Z,14.67
2023-05-07T19:10:05.921Z,13.50
2023-05-07T19:12:33.469Z,13.40
2023-05-07T19:15:04.026Z,13.33
2023-05-07T19:17:35.702Z,13.67
2023-05-07T19:20:04.571Z,13.10
2023-05-07T19:22:34.752Z,13.63
2023-05-07T19:25:02.921Z,15.87
2023-05-07T19:27:33.012Z,14.77
2023-05-07T19:30:00.681Z,14.87
2023-05-07T19:32:28.266Z,13.50
2023-05-07T19:34:59.674Z,13.97
2023-05-07T19:37:28.708Z,14.83
2023-05-07T19:39:56.973Z,13.70
2023-05-07T19:42:24.004Z,14.23
2023-05-07T19:44:51.057Z,13.93
2023-05-07T19:47:19.585Z,13.93
2023-05-07T19:49:46.564Z,14.40
2023-05-07T19:52:15.584Z,14.17
2023-05-07T19:54:44.036Z,13.37
2023-05-07T19:57:15.609Z,14.03
2023-05-07T19:59:42.658Z,13.57
2023-05-07T20:02:09.627Z,13.60
2023-05-07T20:04:38.305Z,14.87
2023-05-07T20:07:06.883Z,14.37
2023-05-07T20:09:34.680Z,13.87
2023-05-07T20:12:02.972Z,15.10
2023-05-07T20:14:32.686Z,14.53
2023-05-07T20:17:01.766Z,16.63
2023-05-07T20:19:31.832Z,16.57
2023-05-07T20:22:01.975Z,16.37
2023-05-07T20:24:37.220Z,17.17
2023-05-07T20:27:05.974Z,16.07
2023-05-07T20:29:36.186Z,16.73
2023-05-07T20:32:06.596Z,16.77
2023-05-07T20:34:33.644Z,17.10
2023-05-07T20:37:01.922Z,16.97
2023-05-07T20:39:32.016Z,16.20
2023-05-07T20:41:59.795Z,15.40
2023-05-07T20:44:30.694Z,15.43
2023-05-07T20:46:57.862Z,15.40
2023-05-07T20:49:26.110Z,17.17
2023-05-07T20:51:54.186Z,17.17
2023-05-07T20:54:24.231Z,19.00
2023-05-07T20:56:53.198Z,17.20
2023-05-07T20:59:23.144Z,16.83
2023-05-07T21:01:50.278Z,18.63
2023-05-07T21:04:17.484Z,18.10
2023-05-07T21:06:44.893Z,18.73
2023-05-07T21:09:12.000Z,18.63
2023-05-07T21:11:42.027Z,18.27
2023-05-07T21:14:11.032Z,19.63
2023-05-07T21:16:38.198Z,18.90
2023-05-07T21:19:05.222Z,18.70
2023-05-07T21:21:35.353Z,19.83
2023-05-07T21:24:02.445Z,19.20
2023-05-07T21:26:32.707Z,20.07
2023-05-07T21:29:00.808Z,21.53
2023-05-07T21:31:27.868Z,20.57
2023-05-07T21:33:58.428Z,21.70
2023-05-07T21:36:28.919Z,20.87
2023-05-07T21:38:56.973Z,19.77
2023-05-07T21:41:24.955Z,19.40
2023-05-07T21:43:53.911Z,18.77
2023-05-07T21:46:22.063Z,20.73
2023-05-07T21:48:50.069Z,20.27
2023-05-07T21:51:20.452Z,20.33
2023-05-07T21:53:48.598Z,21.20
2023-05-07T21:56:17.547Z,20.93
2023-05-07T21:58:48.654Z,20.73
2023-05-07T22:01:18.790Z,21.40
2023-05-07T22:03:45.899Z,27.63
2023-05-07T22:06:22.561Z,26.23
2023-05-07T22:08:55.747Z,29.90
2023-05-07T22:11:23.867Z,24.50
2023-05-07T22:13:53.899Z,22.00
2023-05-07T22:16:21.937Z,25.73
2023-05-07T22:18:52.073Z,22.67
2023-05-07T22:21:22.426Z,23.17
2023-05-07T22:23:52.825Z,23.83
2023-05-07T22:26:22.971Z,23.23
2023-05-07T22:28:53.280Z,23.53
2023-05-07T22:31:22.397Z,23.90
2023-05-07T22:33:51.432Z,23.47
2023-05-07T22:36:18.478Z,23.47
2023-05-07T22:38:46.481Z,24.27
2023-05-07T22:41:16.635Z,25.37
2023-05-07T22:43:44.585Z,24.40
2023-05-07T22:46:12.644Z,23.53
2023-05-07T22:48:39.706Z,23.27
2023-05-07T22:51:13.817Z,22.03
2023-05-07T22:53:43.961Z,22.10
2023-05-07T22:56:14.042Z,21.10
2023-05-07T22:58:42.090Z,24.40
2023-05-07T23:01:19.462Z,22.30
2023-05-07T23:03:46.584Z,22.87
2023-05-07T23:06:14.745Z,22.10
2023-05-07T23:08:44.771Z,21.90
2023-05-07T23:11:14.882Z,20.73
2023-05-07T23:13:44.883Z,19.63
2023-05-07T23:16:12.890Z,17.83
2023-05-07T23:18:47.935Z,18.60
2023-05-07T23:21:17.908Z,17.97
2023-05-07T23:23:48.076Z,18.10
2023-05-07T23:26:18.188Z,16.27
2023-05-07T23:28:48.286Z,16.83
2023-05-07T23:31:18.339Z,16.43
2023-05-07T23:33:46.359Z,16.97
2023-05-07T23:36:16.502Z,16.40
2023-05-07T23:38:43.838Z,15.30
2023-05-07T23:41:13.079Z,15.90
2023-05-07T23:43:41.245Z,14.97
2023-05-07T23:46:09.465Z,16.43
2023-05-07T23:48:39.622Z,16.17
2023-05-07T23:51:07.559Z,15.80
2023-05-07T23:53:37.578Z,16.67
2023-05-07T23:56:04.861Z,16.40
2023-05-07T23:58:32.814Z,15.47
